Terminal Aerodrome Forecast
Issued by NWS

Home | Current Version | Previous Version | Text Only | Print | Product List | Glossary On
Versions: 1 2 3 4 5 6 7 8 9 10 11 12 13 14 15 16 17
000
FTUS42 KMLB 310542
TAFSUA
TAF
KSUA 310542Z 3106/0106 16005KT P6SM FEW025 SCT120 BKN250
     FM311300 19009KT P6SM VCSH SCT030 BKN050 OVC250
      TEMPO 3114/3118 2SM TSRA BKN020CB
     FM311800 14010KT P6SM VCTS SCT020CB BKN040 OVC150
     FM010000 16005KT P6SM SCT020 SCT050 BKN150=

USA.gov is the U.S. government's official web portal to all federal, state and local government web resources and services.